Time;durP1;ratioP1;P1;durP2;ratioP2;P2;SDS_P1;SDS_P2;PMS_P1;PMS_P2;Temp;Humidity;BMP_temperature;BMP_pressure;BME280_temperature;BME280_humidity;BME280_pressure;Samples;Min_cycle;Max_cycle;Signal;HPM_P1;HPM_P2
2022/11/28 00:01:18;;;;;;;;;11.50;9.00;;;;;9.70;78.37;100544.28;4899510;29;45989;-56
2022/11/28 00:03:44;;;;;;;;;12.00;9.80;;;;;9.44;78.41;100486.53;4882031;29;45208;-55
2022/11/28 00:06:09;;;;;;;;;5.50;4.50;;;;;9.71;78.63;100515.84;4882527;29;45929;-57
2022/11/28 00:08:35;;;;;;;;;8.00;8.00;;;;;9.60;78.61;100493.50;4900073;29;45176;-55
2022/11/28 00:11:04;;;;;;;;;7.00;6.00;;;;;9.70;79.16;100511.38;4866864;29;46474;-57
2022/11/28 00:13:30;;;;;;;;;7.40;6.60;;;;;9.70;78.83;100501.28;4899196;29;45437;-57
2022/11/28 00:15:58;;;;;;;;;12.00;8.75;;;;;9.62;78.61;100476.84;4882828;29;45805;-54
2022/11/28 00:18:23;;;;;;;;;6.00;6.00;;;;;9.75;78.45;100498.75;4882652;29;45402;-54
2022/11/28 00:20:48;;;;;;;;;8.50;7.25;;;;;9.17;78.92;100398.91;4882391;29;45906;-56
2022/11/28 00:23:14;;;;;;;;;6.50;6.50;;;;;9.74;78.60;100498.97;4881998;29;45395;-55
2022/11/28 00:25:39;;;;;;;;;6.00;6.00;;;;;9.75;79.79;100497.91;4899347;29;45403;-55
2022/11/28 00:28:05;;;;;;;;;8.50;5.50;;;;;9.72;79.48;100495.59;4899249;29;45258;-56
2022/11/28 00:30:30;;;;;;;;;4.50;4.50;;;;;9.65;79.00;100481.88;4899403;29;45690;-56
2022/11/28 00:32:56;;;;;;;;;6.75;6.75;;;;;9.71;78.98;100492.00;4866328;29;45468;-54
2022/11/28 00:35:21;;;;;;;;;7.75;6.75;;;;;9.70;78.76;100486.72;4882392;29;45406;-56
2022/11/28 00:37:47;;;;;;;;;6.00;6.00;;;;;9.69;79.03;100480.41;4899257;29;45432;-56
2022/11/28 00:40:12;;;;;;;;;6.75;5.50;;;;;9.69;78.94;100480.41;4899136;29;46790;-54
2022/11/28 00:42:38;;;;;;;;;7.00;7.00;;;;;9.72;79.04;100490.94;4899429;29;45363;-57
2022/11/28 00:45:03;;;;;;;;;7.00;6.75;;;;;9.52;79.44;100460.84;4899435;29;46111;-56
2022/11/28 00:47:29;;;;;;;;;6.25;6.25;;;;;9.73;78.91;100489.06;4858662;28;45347;-56
2022/11/28 00:49:54;;;;;;;;;6.75;6.00;;;;;9.54;78.98;100444.19;4848159;29;45710;-54
2022/11/28 00:52:20;;;;;;;;;7.00;7.00;;;;;9.70;79.08;100479.34;4880216;29;45571;-54
2022/11/28 00:54:45;;;;;;;;;4.50;4.50;;;;;9.71;79.25;100481.03;4886366;29;45390;-56
2022/11/28 00:57:11;;;;;;;;;7.75;7.75;;;;;9.48;79.04;100437.66;4899222;29;45405;-56
2022/11/28 00:59:36;;;;;;;;;8.00;6.75;;;;;9.70;80.23;100475.75;4898981;29;46635;-55
2022/11/28 01:02:02;;;;;;;;;7.00;6.00;;;;;9.72;79.12;100482.72;4899130;29;45422;-56
2022/11/28 01:04:27;;;;;;;;;7.00;7.00;;;;;9.47;79.25;100442.28;4898977;29;45302;-56
2022/11/28 01:06:53;;;;;;;;;7.00;7.00;;;;;9.75;79.18;100475.97;4882290;29;45392;-59
2022/11/28 01:09:20;;;;;;;;;8.50;8.50;;;;;9.78;79.63;100472.81;4866119;29;45439;-56
2022/11/28 01:11:47;;;;;;;;;6.60;4.80;;;;;9.79;79.30;100469.03;4882167;29;45319;-53
2022/11/28 01:14:13;;;;;;;;;4.00;4.00;;;;;9.77;78.74;100473.88;4898876;29;45385;-53
2022/11/28 01:16:38;;;;;;;;;8.50;7.50;;;;;9.76;78.79;100472.16;4899215;29;45342;-55
2022/11/28 01:19:04;;;;;;;;;8.75;8.00;;;;;9.81;78.97;100482.53;4881736;29;46117;-55
2022/11/28 01:21:30;;;;;;;;;8.25;8.25;;;;;9.56;79.24;100440.16;4898542;29;45818;-54
2022/11/28 01:23:55;;;;;;;;;7.25;7.25;;;;;9.82;79.30;100479.53;4881802;29;45379;-56
2022/11/28 01:26:24;;;;;;;;;6.50;6.50;;;;;9.59;79.10;100439.75;4898621;29;45355;-55
2022/11/28 01:28:49;;;;;;;;;7.40;5.60;;;;;9.86;79.11;100485.44;4881433;29;45376;-55
2022/11/28 01:31:16;;;;;;;;;7.75;7.75;;;;;9.83;79.13;100474.91;4898906;29;45357;-56
2022/11/28 01:33:42;;;;;;;;;8.80;8.80;;;;;9.89;79.97;100485.03;4881257;29;45444;-56
2022/11/28 01:36:08;;;;;;;;;6.00;6.00;;;;;9.90;79.09;100478.47;4899303;29;45601;-57
2022/11/28 01:38:34;;;;;;;;;8.40;7.40;;;;;9.81;79.65;100477.03;4879912;29;46543;-56
2022/11/28 01:40:59;;;;;;;;;7.50;7.50;;;;;9.85;79.60;100491.97;4898991;29;45448;-56
2022/11/28 01:43:25;;;;;;;;;7.00;7.00;;;;;9.90;79.05;100494.94;4898814;29;45465;-55
2022/11/28 01:45:50;;;;;;;;;7.50;7.50;;;;;9.80;79.05;100484.41;4898661;29;45299;-54
2022/11/28 01:48:35;;;;;;;;;12.50;8.50;;;;;9.86;79.94;100499.16;4862021;28;46402;-53
2022/11/28 01:51:02;;;;;;;;;12.00;8.80;;;;;9.92;79.10;100501.03;4862743;29;45351;-52
2022/11/28 01:53:28;;;;;;;;;6.80;6.80;;;;;9.63;79.55;100460.19;4863089;29;45470;-52
2022/11/28 01:56:14;;;;;;;;;8.40;8.40;;;;;9.94;79.31;100512.66;4876733;29;45552;-55
2022/11/28 01:58:41;;;;;;;;;8.20;6.60;;;;;9.96;79.57;100520.63;4898115;29;45418;-56
2022/11/28 02:01:07;;;;;;;;;11.60;8.80;;;;;9.97;79.67;100516.88;4866302;29;45476;-56
2022/11/28 02:03:38;;;;;;;;;6.50;6.00;;;;;9.99;79.67;100517.50;4881540;29;45365;-55
2022/11/28 02:06:03;;;;;;;;;8.00;8.00;;;;;10.00;79.62;100517.28;4866507;29;45720;-55
2022/11/28 02:08:32;;;;;;;;;7.00;7.00;;;;;9.97;79.74;100516.88;4898087;29;45742;-50
2022/11/28 02:11:24;;;;;;;;;5.20;4.00;;;;;9.76;78.97;100472.16;4881196;29;45627;-50
2022/11/28 02:13:55;;;;;;;;;9.20;9.20;;;;;9.98;79.52;100505.66;4890221;29;45391;-55
2022/11/28 02:16:21;;;;;;;;;6.80;6.80;;;;;10.01;79.09;100515.38;4882050;29;45394;-55
2022/11/28 02:18:54;;;;;;;;;11.50;8.75;;;;;10.02;79.38;100508.81;4898270;29;46754;-56
2022/11/28 02:21:28;;;;;;;;;10.80;9.60;;;;;10.02;79.96;100503.34;4881266;29;45484;-52
2022/11/28 02:24:19;;;;;;;;;8.20;6.80;;;;;10.01;79.38;100498.91;4881117;29;45487;-53
2022/11/28 02:27:05;;;;;;;;;9.60;8.20;;;;;10.01;79.62;100496.16;4898063;29;45329;-55
2022/11/28 02:30:19;;;;;;;;;10.40;7.60;;;;;9.97;79.52;100486.72;4897983;29;46095;-52
2022/11/28 02:32:47;;;;;;;;;7.40;7.40;;;;;10.04;80.09;100493.84;4820455;29;45437;-54
2022/11/28 02:35:32;;;;;;;;;9.00;9.00;;;;;10.04;80.19;100493.00;4889511;29;45500;-55
2022/11/28 02:38:27;;;;;;;;;8.80;8.80;;;;;10.04;80.30;100490.28;4880928;29;45482;-55
2022/11/28 02:41:36;;;;;;;;;16.60;13.00;;;;;10.02;80.34;100497.84;4867665;29;46622;-55
2022/11/28 02:44:12;;;;;;;;;9.20;6.80;;;;;9.97;81.13;100483.97;4857520;29;45422;-56
2022/11/28 02:46:48;;;;;;;;;8.20;8.20;;;;;10.01;80.62;100491.53;4878173;29;45451;-55
2022/11/28 02:49:31;;;;;;;;;15.80;11.00;;;;;9.87;80.77;100463.31;4882595;29;45332;-56
2022/11/28 02:52:09;;;;;;;;;12.00;11.20;;;;;10.00;80.60;100473.41;4823954;28;46178;-54
2022/11/28 02:54:35;;;;;;;;;13.00;10.40;;;;;9.96;80.80;100466.66;4815749;29;45359;-53
2022/11/28 02:57:01;;;;;;;;;12.20;10.00;;;;;10.03;80.07;100469.38;4849991;29;45351;-56
2022/11/28 02:59:42;;;;;;;;;9.40;9.40;;;;;9.97;80.85;100451.88;4900852;29;45396;-55
2022/11/28 03:02:18;;;;;;;;;9.20;8.80;;;;;10.01;80.58;100466.88;4883797;29;45330;-55
2022/11/28 03:05:06;;;;;;;;;9.40;9.40;;;;;9.96;80.70;100455.69;4869092;29;45431;-55
2022/11/28 03:07:56;;;;;;;;;9.60;9.60;;;;;10.01;80.10;100458.63;4900949;29;45354;-55
2022/11/28 03:10:43;;;;;;;;;8.60;8.60;;;;;10.01;80.43;100455.91;4884119;29;45452;-56
2022/11/28 03:13:21;;;;;;;;;9.80;8.40;;;;;9.98;81.11;100459.06;4869112;29;45744;-55
2022/11/28 03:15:49;;;;;;;;;11.20;9.60;;;;;9.96;80.52;100452.09;4867833;29;46669;-54
2022/11/28 03:18:20;;;;;;;;;10.60;8.80;;;;;9.92;81.30;100457.16;4900761;29;45696;-55
2022/11/28 03:20:56;;;;;;;;;9.00;8.20;;;;;9.64;81.34;100417.19;4868422;29;45272;-55
2022/11/28 03:23:24;;;;;;;;;11.60;9.20;;;;;9.96;80.83;100460.31;4883104;29;45293;-55
2022/11/28 03:26:23;;;;;;;;;9.00;7.60;;;;;9.90;80.54;100449.19;4900371;29;45914;-55
2022/11/28 03:28:59;;;;;;;;;15.20;11.00;;;;;9.95;80.65;100458.66;4885950;29;45397;-55
2022/11/28 03:31:37;;;;;;;;;11.20;10.80;;;;;9.98;80.69;100461.78;4884462;29;45310;-53
2022/11/28 03:34:03;;;;;;;;;8.80;8.00;;;;;9.97;80.66;100462.84;4869082;29;46658;-52
2022/11/28 03:36:31;;;;;;;;;9.50;9.50;;;;;10.00;81.15;100476.16;4867783;29;45432;-54
2022/11/28 03:39:00;;;;;;;;;10.20;10.20;;;;;10.00;80.55;100484.38;4883246;29;45440;-56
2022/11/28 03:41:35;;;;;;;;;9.60;8.60;;;;;9.99;80.57;100471.69;4883248;29;45289;-56
2022/11/28 03:44:00;;;;;;;;;14.60;12.60;;;;;9.81;80.35;100442.22;4899901;29;46701;-55
2022/11/28 03:46:30;;;;;;;;;12.50;12.25;;;;;9.66;80.76;100426.00;4899754;29;45432;-53
2022/11/28 03:48:57;;;;;;;;;10.40;9.20;;;;;10.00;80.81;100478.03;4867845;29;45388;-51
2022/11/28 03:51:44;;;;;;;;;12.60;11.80;;;;;10.02;81.38;100464.94;4867725;29;45657;-51
2022/11/28 03:54:12;;;;;;;;;12.00;10.40;;;;;9.98;80.91;100461.78;4845488;28;46389;-54
2022/11/28 03:56:59;;;;;;;;;14.20;12.80;;;;;9.92;80.56;100443.47;4860877;29;45922;-56
2022/11/28 03:59:39;;;;;;;;;9.40;8.60;;;;;9.96;81.29;100455.69;4866956;29;45435;-55
2022/11/28 04:02:34;;;;;;;;;14.40;11.20;;;;;9.98;80.67;100461.78;4867507;29;45327;-55
2022/11/28 04:05:21;;;;;;;;;11.00;9.60;;;;;9.88;81.34;100437.56;4890973;29;45383;-55
2022/11/28 04:07:54;;;;;;;;;12.00;9.20;;;;;9.96;81.00;100457.59;4899151;29;45321;-56
2022/11/28 04:10:23;;;;;;;;;13.00;11.60;;;;;9.98;80.72;100458.22;4883126;29;45324;-53
2022/11/28 04:12:58;;;;;;;;;7.60;5.20;;;;;9.63;80.72;100394.44;4882891;29;45702;-55
2022/11/28 04:15:37;;;;;;;;;14.40;13.20;;;;;10.05;80.61;100464.53;4882161;29;47607;-54
2022/11/28 04:18:03;;;;;;;;;16.00;13.60;;;;;10.09;80.26;100481.41;4899144;29;45399;-54
2022/11/28 04:20:34;;;;;;;;;12.25;10.75;;;;;10.01;81.02;100449.56;4899713;29;45363;-55
2022/11/28 04:23:06;;;;;;;;;13.80;12.20;;;;;10.09;80.85;100463.03;4882244;29;45456;-55
2022/11/28 04:25:33;;;;;;;;;12.40;10.00;;;;;10.09;80.56;100454.81;4866867;29;46315;-52
2022/11/28 04:28:01;;;;;;;;;7.40;6.00;;;;;9.84;80.36;100413.56;4866711;29;45348;-55
2022/11/28 04:30:26;;;;;;;;;14.80;11.60;;;;;10.08;80.64;100464.09;4851499;29;45383;-55
2022/11/28 04:32:55;;;;;;;;;13.00;12.00;;;;;10.06;81.04;100460.72;4867073;29;46101;-56
2022/11/28 04:35:26;;;;;;;;;13.60;12.40;;;;;10.01;81.06;100444.94;4899114;29;46255;-56
2022/11/28 04:37:52;;;;;;;;;17.40;11.40;;;;;10.12;80.84;100468.09;4866655;29;45410;-55
2022/11/28 04:40:17;;;;;;;;;12.00;12.00;;;;;10.11;80.58;100465.56;4867008;29;45400;-56
2022/11/28 04:42:46;;;;;;;;;13.00;9.75;;;;;10.08;81.29;100458.59;4867140;29;45353;-56
2022/11/28 04:45:22;;;;;;;;;13.80;10.40;;;;;10.01;80.60;100446.81;4882144;29;45331;-55
2022/11/28 04:47:47;;;;;;;;;21.60;19.60;;;;;10.12;81.29;100476.31;4866440;29;46461;-55
2022/11/28 04:50:13;;;;;;;;;13.00;11.75;;;;;10.11;81.68;100482.00;4882209;29;45320;-54
2022/11/28 04:52:42;;;;;;;;;20.50;19.00;;;;;10.08;81.15;100486.03;4899659;29;45331;-55
2022/11/28 04:55:11;;;;;;;;;15.20;14.00;;;;;9.93;80.67;100455.28;4856547;29;45537;-55
2022/11/28 04:57:39;;;;;;;;;12.40;12.40;;;;;10.13;81.45;100480.75;4866777;29;45409;-56
2022/11/28 05:00:07;;;;;;;;;22.40;14.40;;;;;10.14;81.01;100467.88;4882200;29;45443;-56
2022/11/28 05:02:33;;;;;;;;;12.00;12.00;;;;;9.82;80.69;100399.22;4899387;29;45461;-55
2022/11/28 05:04:58;;;;;;;;;14.00;9.50;;;;;10.17;80.56;100445.50;4866428;29;47973;-55
2022/11/28 05:07:24;;;;;;;;;12.00;11.75;;;;;10.13;81.22;100431.38;4898932;29;45438;-53
2022/11/28 05:09:49;;;;;;;;;15.00;11.75;;;;;9.76;80.82;100382.59;4899129;29;45391;-54
2022/11/28 05:12:15;;;;;;;;;12.25;9.75;;;;;10.17;81.03;100461.97;4897914;29;45696;-55
2022/11/28 05:14:40;;;;;;;;;12.25;12.25;;;;;10.16;80.92;100466.59;4898908;29;46123;-55
2022/11/28 05:17:06;;;;;;;;;13.50;12.25;;;;;10.17;81.10;100461.97;4898886;29;45393;-55
2022/11/28 05:19:32;;;;;;;;;14.40;14.00;;;;;10.19;80.33;100469.97;4899003;29;45293;-57
2022/11/28 05:21:57;;;;;;;;;13.25;10.50;;;;;10.17;81.15;100476.53;4899035;29;45655;-55
2022/11/28 05:24:23;;;;;;;;;13.00;9.75;;;;;10.17;81.38;100470.19;4881343;29;45461;-55
2022/11/28 05:26:49;;;;;;;;;17.00;11.75;;;;;10.09;81.22;100452.06;4898763;29;45459;-55
2022/11/28 05:29:14;;;;;;;;;12.00;12.00;;;;;10.15;80.53;100447.63;4898722;29;45445;-56
2022/11/28 05:31:39;;;;;;;;;13.00;9.75;;;;;10.15;80.53;100444.88;4881784;29;45342;-55
2022/11/28 05:34:05;;;;;;;;;15.75;13.50;;;;;10.14;81.16;100441.28;4898400;29;46821;-56
2022/11/28 05:36:30;;;;;;;;;14.00;11.50;;;;;10.08;81.21;100446.81;4898660;29;45387;-56
2022/11/28 05:38:56;;;;;;;;;11.75;9.50;;;;;10.12;81.21;100448.03;4865618;29;45546;-54
2022/11/28 05:41:24;;;;;;;;;11.00;10.25;;;;;10.08;80.77;100442.16;4898353;29;45353;-53
2022/11/28 05:43:49;;;;;;;;;13.60;11.60;;;;;9.88;81.45;100415.63;4898572;29;46179;-51
2022/11/28 05:46:15;;;;;;;;;11.50;10.00;;;;;9.84;80.85;100408.06;4898148;29;45259;-52
2022/11/28 05:48:40;;;;;;;;;11.25;8.50;;;;;10.12;81.44;100462.59;4898536;29;45425;-54
2022/11/28 05:51:06;;;;;;;;;13.25;12.00;;;;;10.12;80.95;100457.13;4899000;29;45281;-53
2022/11/28 05:53:31;;;;;;;;;17.50;14.00;;;;;9.89;80.82;100416.50;4898205;29;46348;-54
2022/11/28 05:55:57;;;;;;;;;16.25;10.25;;;;;10.12;81.26;100454.38;4871133;28;45425;-52
2022/11/28 05:58:23;;;;;;;;;10.50;10.50;;;;;10.08;80.93;100450.38;4898383;29;45667;-58
2022/11/28 06:00:48;;;;;;;;;14.50;13.25;;;;;9.88;81.36;100426.59;4898635;29;45353;-56
2022/11/28 06:03:14;;;;;;;;;11.00;9.75;;;;;10.12;80.91;100464.50;4898259;29;45699;-56
2022/11/28 06:05:40;;;;;;;;;14.75;12.00;;;;;10.07;81.04;100453.31;4898081;29;45448;-55
2022/11/28 06:08:06;;;;;;;;;14.80;10.80;;;;;10.08;81.56;100461.34;4898825;29;45941;-56
2022/11/28 06:10:31;;;;;;;;;12.25;9.75;;;;;10.08;81.91;100469.56;4898387;29;45434;-55
2022/11/28 06:12:57;;;;;;;;;14.25;9.00;;;;;10.08;81.34;100468.75;4898546;29;45681;-55
2022/11/28 06:15:22;;;;;;;;;13.25;11.75;;;;;10.08;81.27;100479.72;4898101;29;45435;-55
2022/11/28 06:17:48;;;;;;;;;13.25;12.00;;;;;10.06;81.86;100481.81;4898636;29;45418;-54
2022/11/28 06:20:13;;;;;;;;;12.75;12.50;;;;;10.04;81.32;100488.34;4898696;29;45582;-53
2022/11/28 06:22:39;;;;;;;;;14.25;10.50;;;;;10.10;81.38;100489.41;4897898;29;45682;-55
2022/11/28 06:25:04;;;;;;;;;13.50;10.00;;;;;10.12;81.86;100494.66;4901446;29;45380;-52
2022/11/28 06:27:30;;;;;;;;;8.00;8.00;;;;;10.10;81.24;100489.41;4901486;29;45411;-54
2022/11/28 06:29:55;;;;;;;;;9.00;9.00;;;;;10.09;80.94;100490.44;4901805;29;45305;-52
2022/11/28 06:32:21;;;;;;;;;14.25;14.00;;;;;10.08;81.08;100490.69;4901220;29;45584;-60
2022/11/28 06:34:46;;;;;;;;;10.25;8.75;;;;;10.10;81.36;100505.00;4901382;29;45288;-55
2022/11/28 06:37:12;;;;;;;;;13.75;8.75;;;;;10.09;80.92;100493.19;4901483;29;45205;-53
2022/11/28 06:39:37;;;;;;;;;13.00;13.00;;;;;10.03;81.46;100483.94;4901247;29;45508;-53
2022/11/28 06:42:03;;;;;;;;;12.00;12.00;;;;;10.10;81.53;100494.91;4901010;29;47465;-54
2022/11/28 06:44:28;;;;;;;;;8.25;8.25;;;;;10.10;81.49;100505.88;4901340;29;45465;-56
2022/11/28 06:46:54;;;;;;;;;12.75;10.50;;;;;10.06;81.37;100504.59;4900806;29;45524;-55
2022/11/28 06:49:19;;;;;;;;;8.25;8.25;;;;;10.08;81.08;100512.63;4884292;29;45611;-54
2022/11/28 06:51:45;;;;;;;;;18.50;13.25;;;;;10.02;80.72;100506.06;4900706;29;45428;-55
2022/11/28 06:54:10;;;;;;;;;12.75;11.75;;;;;10.06;80.69;100517.47;4901021;29;45466;-56
2022/11/28 06:56:36;;;;;;;;;12.00;10.00;;;;;10.02;81.40;100512.41;4873352;28;45375;-56
2022/11/28 06:59:01;;;;;;;;;16.00;13.00;;;;;9.56;81.28;100448.38;4900765;29;45309;-56
2022/11/28 07:01:28;;;;;;;;;9.50;8.25;;;;;9.67;80.82;100487.16;4900796;29;45848;-56
2022/11/28 07:03:54;;;;;;;;;13.60;10.20;;;;;9.90;81.67;100511.38;4900304;29;45360;-55
2022/11/28 07:06:20;;;;;;;;;8.75;6.50;;;;;9.89;81.48;100513.25;4900565;29;45315;-56
2022/11/28 07:08:46;;;;;;;;;11.40;9.20;;;;;9.90;81.75;100514.97;4900726;29;45252;-52
2022/11/28 07:11:15;;;;;;;;;10.00;8.25;;;;;9.91;81.46;100521.28;4900335;29;45754;-52
2022/11/28 07:13:41;;;;;;;;;13.40;10.60;;;;;9.93;81.18;100521.91;4883463;29;46280;-55
2022/11/28 07:16:07;;;;;;;;;8.60;7.80;;;;;9.69;80.46;100476.81;4900357;29;45378;-54
2022/11/28 07:18:33;;;;;;;;;9.80;9.80;;;;;9.92;81.47;100519.41;4883683;29;45444;-55
2022/11/28 07:20:59;;;;;;;;;10.75;7.75;;;;;9.93;81.92;100515.59;4900108;29;45734;-53
2022/11/28 07:23:25;;;;;;;;;11.50;9.00;;;;;9.88;80.39;100514.31;4900431;29;45455;-54
2022/11/28 07:25:50;;;;;;;;;15.25;10.50;;;;;9.74;81.33;100508.03;4900794;29;45352;-57
2022/11/28 07:28:16;;;;;;;;;12.25;9.25;;;;;9.77;80.89;100517.72;4900452;29;45352;-57
2022/11/28 07:30:41;;;;;;;;;11.75;8.50;;;;;9.73;81.59;100511.81;4900350;29;46638;-54
2022/11/28 07:33:06;;;;;;;;;13.25;11.00;;;;;9.76;81.71;100516.88;4899852;29;45422;-56
2022/11/28 07:35:33;;;;;;;;;11.25;8.50;;;;;9.53;81.54;100484.44;4899277;29;45616;-57
2022/11/28 07:37:58;;;;;;;;;8.80;7.60;;;;;9.70;81.13;100525.94;4883082;29;45479;-57
2022/11/28 07:40:24;;;;;;;;;12.00;8.50;;;;;9.65;81.57;100530.38;4900362;29;45338;-53
2022/11/28 07:42:50;;;;;;;;;9.50;8.75;;;;;9.40;81.06;100487.19;4900486;29;45401;-55
2022/11/28 07:45:15;;;;;;;;;11.75;8.00;;;;;9.70;81.34;100517.72;4900434;29;45387;-53
2022/11/28 07:47:41;;;;;;;;;9.75;8.00;;;;;9.69;80.73;100526.16;4900386;29;45463;-51
2022/11/28 07:50:07;;;;;;;;;12.50;7.00;;;;;9.70;81.57;100536.06;4882953;29;48095;-55
2022/11/28 07:52:32;;;;;;;;;13.00;8.00;;;;;9.53;81.04;100506.34;4900125;29;45450;-55
2022/11/28 07:54:58;;;;;;;;;7.50;7.50;;;;;9.55;81.29;100512.44;4900507;29;45358;-55
2022/11/28 07:57:23;;;;;;;;;12.00;8.25;;;;;9.53;80.62;100500.88;4879068;28;46241;-56
2022/11/28 07:59:49;;;;;;;;;10.25;7.75;;;;;9.81;80.88;100549.13;4892677;29;45841;-56
2022/11/28 08:02:14;;;;;;;;;9.50;9.50;;;;;9.68;81.24;100514.38;4899652;29;45233;-55
2022/11/28 08:04:40;;;;;;;;;9.00;9.00;;;;;9.82;80.41;100528.88;4900229;29;45322;-56
2022/11/28 08:07:05;;;;;;;;;11.00;7.75;;;;;9.89;80.64;100543.41;4883154;29;45409;-55
2022/11/28 08:09:31;;;;;;;;;7.75;7.50;;;;;9.70;80.04;100516.88;4899762;29;46070;-55
2022/11/28 08:11:56;;;;;;;;;7.00;7.00;;;;;9.72;80.14;100510.13;4900047;29;45249;-55
2022/11/28 08:14:22;;;;;;;;;9.75;8.50;;;;;10.03;80.14;100554.38;4900064;29;45177;-56
2022/11/28 08:16:48;;;;;;;;;8.75;8.25;;;;;10.01;80.42;100542.78;4900184;29;45579;-55
2022/11/28 08:19:14;;;;;;;;;7.80;7.20;;;;;10.11;79.50;100554.16;4899480;29;46113;-55
2022/11/28 08:21:40;;;;;;;;;11.60;8.00;;;;;10.14;79.38;100559.22;4899615;29;45864;-55
2022/11/28 08:24:09;;;;;;;;;12.60;8.80;;;;;10.16;79.83;100564.50;4899645;29;45338;-55
2022/11/28 08:26:35;;;;;;;;;15.80;12.80;;;;;10.18;79.32;100565.13;4899361;29;45351;-54
2022/11/28 08:29:01;;;;;;;;;15.60;10.80;;;;;10.16;79.34;100564.50;4899080;29;48286;-51
2022/11/28 08:31:34;;;;;;;;;9.40;8.60;;;;;10.22;79.42;100573.75;4899290;29;46021;-54
2022/11/28 08:34:01;;;;;;;;;8.40;8.40;;;;;10.28;78.81;100571.00;4882567;29;45305;-53
2022/11/28 08:36:26;;;;;;;;;11.40;10.20;;;;;10.29;78.77;100558.13;4899335;29;45513;-57
2022/11/28 08:38:52;;;;;;;;;10.75;9.25;;;;;10.30;78.94;100552.44;4899228;29;45505;-58
2022/11/28 08:41:21;;;;;;;;;14.75;12.75;;;;;10.33;78.75;100559.38;4899538;29;45325;-58
2022/11/28 08:43:46;;;;;;;;;8.80;8.80;;;;;10.21;78.54;100537.28;4899329;29;45425;-53
2022/11/28 08:46:14;;;;;;;;;7.00;7.00;;;;;10.26;77.87;100553.09;4899441;29;45508;-55
2022/11/28 08:48:39;;;;;;;;;5.80;5.80;;;;;10.10;78.04;100524.22;4898689;29;46500;-54
2022/11/28 08:51:06;;;;;;;;;10.00;7.50;;;;;9.49;78.53;100436.59;4899501;29;45335;-54
2022/11/28 08:53:31;;;;;;;;;8.40;7.60;;;;;10.25;78.63;100560.47;4898932;29;45687;-54
2022/11/28 08:55:58;;;;;;;;;9.00;7.00;;;;;10.24;78.25;100555.22;4899318;29;45292;-56
2022/11/28 08:58:23;;;;;;;;;8.20;6.00;;;;;10.15;78.06;100549.94;4869318;28;46758;-54
2022/11/28 09:00:49;;;;;;;;;7.25;7.00;;;;;10.25;78.22;100556.88;4863056;29;45424;-52
2022/11/28 09:03:15;;;;;;;;;14.75;9.75;;;;;10.23;78.22;100545.25;4880313;29;45481;-51
2022/11/28 09:05:42;;;;;;;;;8.40;7.00;;;;;9.81;77.64;100468.81;4880294;29;45668;-53
2022/11/28 09:08:08;;;;;;;;;6.60;6.60;;;;;10.20;78.64;100537.47;4879920;29;46588;-52
2022/11/28 09:10:37;;;;;;;;;6.60;6.00;;;;;10.23;78.60;100546.13;4879820;29;45398;-53
2022/11/28 09:13:03;;;;;;;;;12.00;8.40;;;;;10.23;78.63;100548.00;4863050;29;45361;-49
2022/11/28 09:15:29;;;;;;;;;9.25;6.00;;;;;10.20;78.16;100542.97;4880513;29;45537;-51
2022/11/28 09:17:54;;;;;;;;;10.25;7.00;;;;;10.21;77.77;100544.66;4879880;29;45447;-50
2022/11/28 09:20:20;;;;;;;;;9.25;7.75;;;;;10.33;78.48;100550.31;4880201;29;45426;-53
2022/11/28 09:22:46;;;;;;;;;9.80;9.80;;;;;10.28;77.21;100550.97;4862761;29;45386;-53
2022/11/28 09:25:12;;;;;;;;;10.00;8.00;;;;;10.32;77.64;100554.97;4863105;29;45515;-52
2022/11/28 09:27:38;;;;;;;;;7.20;7.00;;;;;10.07;77.35;100519.13;4862754;29;45727;-53
2022/11/28 09:30:07;;;;;;;;;7.50;7.00;;;;;10.33;77.12;100559.38;4855688;29;45548;-56
2022/11/28 09:32:32;;;;;;;;;5.20;5.20;;;;;10.14;77.29;100529.03;4878831;29;45359;-55
2022/11/28 09:34:58;;;;;;;;;6.50;6.50;;;;;10.37;77.62;100560.66;4877848;29;45444;-51
2022/11/28 09:37:23;;;;;;;;;9.00;7.00;;;;;10.41;77.96;100572.03;4878535;29;45903;-54
2022/11/28 09:39:50;;;;;;;;;7.50;7.25;;;;;10.44;77.31;100564.25;4877726;29;46029;-53
2022/11/28 09:42:21;;;;;;;;;9.80;7.00;;;;;10.52;76.85;100573.31;4861581;29;45471;-54
2022/11/28 09:44:51;;;;;;;;;6.40;6.40;;;;;10.53;76.69;100572.25;4846974;29;45741;-55
2022/11/28 09:47:23;;;;;;;;;5.20;5.20;;;;;10.53;76.71;100566.75;4844663;29;45480;-56
2022/11/28 09:49:50;;;;;;;;;9.00;7.60;;;;;10.65;76.96;100576.00;4862000;29;45495;-51
2022/11/28 09:52:45;;;;;;;;;4.40;4.40;;;;;10.63;76.75;100558.06;4878444;29;45418;-51
2022/11/28 09:55:10;;;;;;;;;7.40;6.60;;;;;10.73;75.49;100574.06;4861290;29;45660;-54
2022/11/28 09:57:39;;;;;;;;;8.75;7.00;;;;;10.40;75.42;100516.31;4889984;29;46575;-57
2022/11/28 10:00:06;;;;;;;;;6.80;6.20;;;;;10.78;76.15;100561.38;4824970;29;45406;-54
2022/11/28 10:02:38;;;;;;;;;9.00;7.80;;;;;10.42;74.30;100497.75;4873020;29;45813;-53
2022/11/28 10:05:16;;;;;;;;;8.60;4.80;;;;;10.79;75.18;100579.53;4870937;29;45648;-55
2022/11/28 10:08:01;;;;;;;;;4.60;4.60;;;;;10.82;75.11;100564.53;4885783;29;45748;-53
2022/11/28 10:10:48;;;;;;;;;5.20;5.20;;;;;10.75;75.01;100547.25;4890609;29;45365;-53
2022/11/28 10:13:31;;;;;;;;;5.80;5.80;;;;;10.83;74.62;100564.31;4868896;29;45441;-53
2022/11/28 10:16:10;;;;;;;;;9.60;5.60;;;;;10.60;74.89;100522.81;4851416;29;45405;-53
2022/11/28 10:18:40;;;;;;;;;5.20;5.20;;;;;10.43;74.88;100515.06;4851808;29;46104;-53
2022/11/28 10:21:27;;;;;;;;;8.60;4.00;;;;;10.68;74.59;100561.84;4851429;29;45635;-53
2022/11/28 10:23:55;;;;;;;;;5.20;4.20;;;;;10.80;75.14;100580.38;4883047;29;45458;-53
2022/11/28 10:26:24;;;;;;;;;3.60;3.60;;;;;10.59;75.13;100538.44;4884205;29;45404;-55
2022/11/28 10:28:51;;;;;;;;;7.80;4.00;;;;;10.47;74.38;100538.28;4875323;28;46029;-54
2022/11/28 10:31:34;;;;;;;;;8.60;6.60;;;;;10.71;74.36;100583.38;4866753;29;45372;-54
2022/11/28 10:34:30;;;;;;;;;6.80;4.40;;;;;10.50;75.02;100540.59;4883989;29;45316;-55
2022/11/28 10:37:30;;;;;;;;;6.80;3.40;;;;;10.80;75.30;100574.91;4883283;29;45521;-57
2022/11/28 10:39:57;;;;;;;;;7.00;4.00;;;;;10.83;74.91;100563.47;4866479;29;46653;-55
2022/11/28 10:42:31;;;;;;;;;4.40;4.00;;;;;10.90;74.98;100574.44;4866669;29;45485;-54
2022/11/28 10:45:11;;;;;;;;;2.80;2.80;;;;;10.91;74.44;100567.88;4866841;29;45527;-53
2022/11/28 10:48:01;;;;;;;;;4.00;3.00;;;;;10.89;74.12;100562.59;4886531;29;45376;-54
2022/11/28 10:50:53;;;;;;;;;5.00;4.40;;;;;10.98;74.29;100560.44;4883199;29;45685;-52
2022/11/28 10:53:39;;;;;;;;;6.00;3.00;;;;;10.99;73.95;100559.38;4883408;29;45442;-54
2022/11/28 10:56:28;;;;;;;;;4.40;4.40;;;;;11.01;73.98;100564.66;4867219;29;45384;-52
2022/11/28 10:59:01;;;;;;;;;6.60;5.80;;;;;11.06;73.96;100568.41;4874016;29;45881;-51
2022/11/28 11:01:33;;;;;;;;;3.60;3.40;;;;;11.08;73.32;100559.97;4846232;29;45451;-58
2022/11/28 11:03:59;;;;;;;;;8.40;5.20;;;;;11.13;73.57;100557.41;4862713;29;45726;-54
2022/11/28 11:06:25;;;;;;;;;4.00;4.00;;;;;11.25;73.23;100563.88;4865619;29;45493;-50
2022/11/28 11:08:50;;;;;;;;;4.20;4.20;;;;;11.36;72.91;100561.47;4865122;29;45404;-52
2022/11/28 11:11:26;;;;;;;;;3.50;3.50;;;;;11.25;72.88;100522.69;4860911;29;46001;-56
2022/11/28 11:13:59;;;;;;;;;4.80;3.60;;;;;11.75;72.28;100565.00;4878732;29;45426;-56
2022/11/28 11:16:25;;;;;;;;;8.00;7.00;;;;;13.12;69.33;100544.03;4877847;29;45518;-54
2022/11/28 11:18:52;;;;;;;;;7.00;5.00;;;;;15.12;62.88;100570.22;4879306;29;45441;-54
2022/11/28 11:21:21;;;;;;;;;4.60;3.40;;;;;15.96;57.91;100553.16;4878673;29;46608;-55
2022/11/28 11:23:47;;;;;;;;;8.00;5.80;;;;;18.46;54.98;100571.34;4877748;29;45677;-58
2022/11/28 11:26:28;;;;;;;;;5.60;4.80;;;;;21.13;48.44;100570.03;4861880;29;45385;-56
2022/11/28 11:28:54;;;;;;;;;3.00;2.60;;;;;20.75;46.22;100525.00;4838125;29;45932;-49
2022/11/28 11:31:38;;;;;;;;;7.25;4.75;;;;;19.06;49.34;100559.13;4861496;29;45461;-51
2022/11/28 11:34:05;;;;;;;;;7.00;2.20;;;;;17.29;52.10;100554.34;4862118;29;45407;-58